Seabulk Arctic — WCY7054 — position and weather

sailwx.info

Track history (hours):
 
Tides and Currents Weather Stations Pressure Air Temp Water Temp Dewpoint Dewpoint Depression Visibility Wind Speed Wind Dir Waves Ship Positions

Seabulk Arctic

Owner: LIGHTSHIP TANKERS IV LLC, FORT LAUDERDALE, FL. More information available from US FCC via Universal Licensing System and Coast Guard Vessel Documentation Center.

Last reported at 2016-May-01 11:33 UTC. Time now 2016-May-07 00:24 UTC.
Position N 38°33' W 074°44'.

Type: Tanker. MMSI: 366826000.

Date/timePositionNaut miles runAvg speedWind from/ knotsBaromVisibWave heightAir tempDewpointWater temp
2016-May-01 11:33N 38°33' W 074°44'0 0.0
2016-May-01 10:29N 38°33' W 074°44'0 0.0
2016-May-01 09:29N 38°33' W 074°44'0 0.0
2016-May-01 08:18N 38°33' W 074°44'0 0.0
2016-May-01 06:15N 38°33' W 074°44'0 0.0
2016-May-01 05:27N 38°33' W 074°44'0 0.0
2016-May-01 04:33N 38°33' W 074°44'0 0.0
2016-May-01 03:33N 38°33' W 074°44'0 0.1
2016-May-01 02:33N 38°33' W 074°44'0 0.0
2016-May-01 01:29N 38°33' W 074°44'36 3.2
2016-Apr-30 14:14N 39°03' W 075°10'1014.8
2016-Apr-30 13:33N 39°11' W 075°17'1615.5
2016-Apr-30 12:33N 39°23' W 075°29'1313.5
2016-Apr-30 11:34N 39°36' W 075°34'1211.6
2016-Apr-30 10:33N 39°47' W 075°28'3 3.2
2016-Apr-30 09:29N 39°49' W 075°24'0 0.0
2016-Apr-30 08:32N 39°49' W 075°24'0 0.0
2016-Apr-30 07:32N 39°49' W 075°24'0 0.0
2016-Apr-30 06:32N 39°49' W 075°24'0 0.0
2016-Apr-30 05:32N 39°49' W 075°24'0 0.0
2016-Apr-30 04:32N 39°49' W 075°24'0 0.0
2016-Apr-30 03:32N 39°49' W 075°24'0 0.0
2016-Apr-30 02:32N 39°49' W 075°24'0 0.0
2016-Apr-30 01:31N 39°49' W 075°24'0 0.0
2016-Apr-30 00:32N 39°49' W 075°24'0 0.0
2016-Apr-29 23:32N 39°49' W 075°24'0 0.0
2016-Apr-29 22:32N 39°49' W 075°24'0 0.0
2016-Apr-29 21:32N 39°49' W 075°24'0 0.0
2016-Apr-29 20:31N 39°49' W 075°24'0 0.0
2016-Apr-29 19:32N 39°49' W 075°24'0 0.0
2016-Apr-29 18:32N 39°49' W 075°24'0 0.0
2016-Apr-29 17:32N 39°49' W 075°24'0 0.0
2016-Apr-29 16:32N 39°49' W 075°24'0 0.0
2016-Apr-29 15:32N 39°49' W 075°24'0 0.0
2016-Apr-29 14:32N 39°49' W 075°24'0 0.0
2016-Apr-29 13:32N 39°49' W 075°24'0 0.0
2016-Apr-29 12:32N 39°49' W 075°24'0 0.0
2016-Apr-29 11:29N 39°49' W 075°24'0 0.0
2016-Apr-29 10:32N 39°49' W 075°24'0 0.0
2016-Apr-29 09:32N 39°49' W 075°24'0 0.1
2016-Apr-29 08:33N 39°49' W 075°24'3 3.0
2016-Apr-29 07:33N 39°47' W 075°27'9 8.8
2016-Apr-29 06:33N 39°39' W 075°33'1211.8
2016-Apr-29 05:33N 39°27' W 075°34'1313.0
2016-Apr-29 04:33N 39°18' W 075°22'1212.3
2016-Apr-29 03:33N 39°08' W 075°13'42 3.8
2016-Apr-28 16:18N 38°34' W 074°40'3 3.8
2016-Apr-28 15:26N 38°34' W 074°44'14 4.7
2016-Apr-28 12:32N 38°44' W 074°56'6 5.7
2016-Apr-28 11:33N 38°40' W 074°51'5 5.3
2016-Apr-28 10:33N 38°36' W 074°47'5 4.7
2016-Apr-28 09:32N 38°33' W 074°42'5 4.5
2016-Apr-28 08:28N 38°36' W 074°36'0 0.4
2016-Apr-28 07:32N 38°36' W 074°37'2 1.6
2016-Apr-28 06:29N 38°35' W 074°38'4 4.7
2016-Apr-28 05:32N 38°38' W 074°35'252 6.4
2016-Apr-26 14:06N 34°32' W 075°37'27613.7
2016-Apr-25 18:00N 31°12' W 079°24'26715.0 230 / 131017.610.8 1.527.016.4
2016-Apr-25 00:12N 26°46' W 079°45'1116.3
2016-Apr-24 23:33N 26°35' W 079°45'1716.7
2016-Apr-24 22:34N 26°19' W 079°47'1716.8
2016-Apr-24 21:33N 26°02' W 079°49'1716.9
2016-Apr-24 20:33N 25°45' W 079°52'29911.3
2016-Apr-23 18:00N 26°00' W 085°24'33514.0 330 / 131015.610.8 1.028.020.9
2016-Apr-22 18:00N 27°36' W 091°24'15811.7 320 / 131017.010.8 1.025.020.7
2016-Apr-22 04:32N 29°20' W 093°39'10 9.3
2016-Apr-22 03:26N 29°30' W 093°41'910.7
2016-Apr-22 02:33N 29°36' W 093°48'1010.2
2016-Apr-22 01:33N 29°46' W 093°54'9 1.1
2016-Apr-21 17:29N 29°54' W 093°54'8 4.0
2016-Apr-21 15:29N 30°01' W 093°59'  
Track history (hours):
 
Tides and Currents Weather Stations Pressure Air Temp Water Temp Dewpoint Dewpoint Depression Visibility Wind Speed Wind Dir Waves Ship Positions

Seabulk Arctic

Owner: LIGHTSHIP TANKERS IV LLC, FORT LAUDERDALE, FL. More information available from US FCC via Universal Licensing System and Coast Guard Vessel Documentation Center.

Last reported at 2016-May-01 11:33 UTC. Time now 2016-May-07 00:24 UTC.
Position N 38°33' W 074°44'.

Type: Tanker. MMSI: 366826000.

Date/timePositionNaut miles runAvg speedWind from/ knotsBaromVisibWave heightAir tempDewpointWater temp
2016-May-01 11:33N 38°33' W 074°44'0 0.0
2016-May-01 10:29N 38°33' W 074°44'0 0.0
2016-May-01 09:29N 38°33' W 074°44'0 0.0
2016-May-01 08:18N 38°33' W 074°44'0 0.0
2016-May-01 06:15N 38°33' W 074°44'0 0.0
2016-May-01 05:27N 38°33' W 074°44'0 0.0
2016-May-01 04:33N 38°33' W 074°44'0 0.0
2016-May-01 03:33N 38°33' W 074°44'0 0.1
2016-May-01 02:33N 38°33' W 074°44'0 0.0
2016-May-01 01:29N 38°33' W 074°44'36 3.2
2016-Apr-30 14:14N 39°03' W 075°10'1014.8
2016-Apr-30 13:33N 39°11' W 075°17'1615.5
2016-Apr-30 12:33N 39°23' W 075°29'1313.5
2016-Apr-30 11:34N 39°36' W 075°34'1211.6
2016-Apr-30 10:33N 39°47' W 075°28'3 3.2
2016-Apr-30 09:29N 39°49' W 075°24'0 0.0
2016-Apr-30 08:32N 39°49' W 075°24'0 0.0
2016-Apr-30 07:32N 39°49' W 075°24'0 0.0
2016-Apr-30 06:32N 39°49' W 075°24'0 0.0
2016-Apr-30 05:32N 39°49' W 075°24'0 0.0
2016-Apr-30 04:32N 39°49' W 075°24'0 0.0
2016-Apr-30 03:32N 39°49' W 075°24'0 0.0
2016-Apr-30 02:32N 39°49' W 075°24'0 0.0
2016-Apr-30 01:31N 39°49' W 075°24'0 0.0
2016-Apr-30 00:32N 39°49' W 075°24'0 0.0
2016-Apr-29 23:32N 39°49' W 075°24'0 0.0
2016-Apr-29 22:32N 39°49' W 075°24'0 0.0
2016-Apr-29 21:32N 39°49' W 075°24'0 0.0
2016-Apr-29 20:31N 39°49' W 075°24'0 0.0
2016-Apr-29 19:32N 39°49' W 075°24'0 0.0
2016-Apr-29 18:32N 39°49' W 075°24'0 0.0
2016-Apr-29 17:32N 39°49' W 075°24'0 0.0
2016-Apr-29 16:32N 39°49' W 075°24'0 0.0
2016-Apr-29 15:32N 39°49' W 075°24'0 0.0
2016-Apr-29 14:32N 39°49' W 075°24'0 0.0
2016-Apr-29 13:32N 39°49' W 075°24'0 0.0
2016-Apr-29 12:32N 39°49' W 075°24'0 0.0
2016-Apr-29 11:29N 39°49' W 075°24'0 0.0
2016-Apr-29 10:32N 39°49' W 075°24'0 0.0
2016-Apr-29 09:32N 39°49' W 075°24'0 0.1
2016-Apr-29 08:33N 39°49' W 075°24'3 3.0
2016-Apr-29 07:33N 39°47' W 075°27'9 8.8
2016-Apr-29 06:33N 39°39' W 075°33'1211.8
2016-Apr-29 05:33N 39°27' W 075°34'1313.0
2016-Apr-29 04:33N 39°18' W 075°22'1212.3
2016-Apr-29 03:33N 39°08' W 075°13'42 3.8
2016-Apr-28 16:18N 38°34' W 074°40'3 3.8
2016-Apr-28 15:26N 38°34' W 074°44'14 4.7
2016-Apr-28 12:32N 38°44' W 074°56'6 5.7
2016-Apr-28 11:33N 38°40' W 074°51'5 5.3
2016-Apr-28 10:33N 38°36' W 074°47'5 4.7
2016-Apr-28 09:32N 38°33' W 074°42'5 4.5
2016-Apr-28 08:28N 38°36' W 074°36'0 0.4
2016-Apr-28 07:32N 38°36' W 074°37'2 1.6
2016-Apr-28 06:29N 38°35' W 074°38'4 4.7
2016-Apr-28 05:32N 38°38' W 074°35'252 6.4
2016-Apr-26 14:06N 34°32' W 075°37'27613.7
2016-Apr-25 18:00N 31°12' W 079°24'26715.0 230 / 131017.610.8 1.527.016.4
2016-Apr-25 00:12N 26°46' W 079°45'1116.3
2016-Apr-24 23:33N 26°35' W 079°45'1716.7
2016-Apr-24 22:34N 26°19' W 079°47'1716.8
2016-Apr-24 21:33N 26°02' W 079°49'1716.9
2016-Apr-24 20:33N 25°45' W 079°52'29911.3
2016-Apr-23 18:00N 26°00' W 085°24'33514.0 330 / 131015.610.8 1.028.020.9
2016-Apr-22 18:00N 27°36' W 091°24'15811.7 320 / 131017.010.8 1.025.020.7
2016-Apr-22 04:32N 29°20' W 093°39'10 9.3
2016-Apr-22 03:26N 29°30' W 093°41'910.7
2016-Apr-22 02:33N 29°36' W 093°48'1010.2
2016-Apr-22 01:33N 29°46' W 093°54'9 1.1
2016-Apr-21 17:29N 29°54' W 093°54'8 4.0
2016-Apr-21 15:29N 30°01' W 093°59'  

Dump ship's entire track history